createdAt,value
2023-03-26T00:02:13.960Z,0.80
2023-03-26T00:05:17.250Z,0.73
2023-03-26T00:08:20.614Z,0.90
2023-03-26T00:11:26.603Z,0.80
2023-03-26T00:14:30.494Z,0.70
2023-03-26T00:17:34.674Z,0.70
2023-03-26T00:20:38.522Z,1.13
2023-03-26T00:23:43.113Z,0.90
2023-03-26T00:26:53.485Z,0.88
2023-03-26T00:29:56.939Z,0.90
2023-03-26T00:33:00.444Z,0.98
2023-03-26T00:36:04.782Z,0.90
2023-03-26T00:39:10.151Z,0.90
2023-03-26T00:42:14.797Z,1.05
2023-03-26T00:45:21.314Z,1.20
2023-03-26T00:48:41.925Z,0.73
2023-03-26T00:51:48.083Z,1.30
2023-03-26T00:54:54.445Z,1.17
2023-03-26T00:57:57.770Z,1.10
2023-03-26T01:01:04.701Z,1.20
2023-03-26T01:04:34.789Z,1.00
2023-03-26T01:07:38.977Z,1.07
2023-03-26T01:10:50.852Z,1.20
2023-03-26T01:14:06.360Z,0.75
2023-03-26T01:17:12.505Z,0.90
2023-03-26T01:20:19.338Z,1.07
2023-03-26T01:23:30.024Z,0.95
2023-03-26T01:26:54.147Z,1.13
2023-03-26T01:30:06.703Z,1.05
2023-03-26T01:33:37.420Z,0.90
2023-03-26T01:37:02.840Z,0.80
2023-03-26T01:40:44.001Z,0.88
2023-03-26T01:44:14.196Z,0.68
2023-03-26T01:47:19.330Z,0.63
2023-03-26T01:50:23.992Z,0.80
2023-03-26T01:53:27.700Z,1.00
2023-03-26T01:57:09.113Z,1.08
2023-03-26T02:00:28.551Z,0.90
2023-03-26T02:03:39.131Z,1.13
2023-03-26T02:07:05.778Z,0.90
2023-03-26T02:10:23.286Z,0.77
2023-03-26T02:13:27.404Z,0.63
2023-03-26T02:16:30.591Z,0.70
2023-03-26T02:19:33.828Z,0.98
2023-03-26T02:22:41.420Z,0.90
2023-03-26T02:25:46.912Z,0.80
2023-03-26T02:28:50.581Z,0.70
2023-03-26T02:31:54.701Z,0.68
2023-03-26T02:34:58.165Z,0.80
2023-03-26T02:38:02.076Z,0.60
2023-03-26T02:41:06.028Z,0.80
2023-03-26T02:44:27.853Z,0.90
2023-03-26T02:47:35.732Z,0.55
2023-03-26T02:51:02.577Z,0.50
2023-03-26T02:54:34.516Z,1.05
2023-03-26T02:57:57.924Z,0.88
2023-03-26T03:01:08.053Z,0.63
2023-03-26T03:04:24.014Z,0.80
2023-03-26T03:07:27.576Z,0.50
2023-03-26T03:10:33.251Z,0.70
2023-03-26T03:13:54.281Z,0.90
2023-03-26T03:17:07.950Z,0.88
2023-03-26T03:20:12.056Z,1.43
2023-03-26T03:23:16.200Z,0.90
2023-03-26T03:26:23.208Z,1.10
2023-03-26T03:29:28.910Z,0.80
2023-03-26T03:32:34.624Z,0.90
2023-03-26T03:35:41.674Z,0.80
2023-03-26T03:38:45.794Z,0.90
2023-03-26T03:41:53.674Z,1.00
2023-03-26T03:44:57.112Z,1.27
2023-03-26T03:48:19.103Z,1.20
2023-03-26T03:51:24.671Z,1.42
2023-03-26T03:54:39.154Z,1.60
2023-03-26T03:57:52.593Z,1.17
2023-03-26T04:01:00.913Z,1.30
2023-03-26T04:04:28.513Z,1.58
2023-03-26T04:07:36.248Z,1.60
2023-03-26T04:10:43.815Z,1.57
2023-03-26T04:13:47.092Z,1.50
2023-03-26T04:17:02.260Z,1.80
2023-03-26T04:20:09.104Z,2.30
2023-03-26T04:23:18.143Z,1.90
2023-03-26T04:26:25.057Z,2.05
2023-03-26T04:29:50.763Z,1.80
2023-03-26T04:33:00.900Z,2.20
2023-03-26T04:36:10.305Z,1.90
2023-03-26T04:39:14.224Z,1.90
2023-03-26T04:42:46.866Z,1.90
2023-03-26T04:46:03.445Z,1.88
2023-03-26T04:49:11.311Z,1.90
2023-03-26T04:52:15.907Z,2.10
2023-03-26T04:55:42.159Z,2.05
2023-03-26T04:58:59.800Z,2.05
2023-03-26T05:02:06.222Z,1.92
2023-03-26T05:05:19.258Z,1.83
2023-03-26T05:08:22.655Z,1.65
2023-03-26T05:11:26.993Z,1.92
2023-03-26T05:14:30.618Z,2.63
2023-03-26T05:17:41.491Z,2.20
2023-03-26T05:20:52.041Z,2.58
2023-03-26T05:23:55.914Z,2.15
2023-03-26T05:26:59.781Z,2.30
2023-03-26T05:30:04.740Z,2.17
2023-03-26T05:33:14.782Z,3.60
2023-03-26T05:36:26.044Z,4.00
2023-03-26T05:39:41.338Z,4.00
2023-03-26T05:43:04.100Z,3.08
2023-03-26T05:46:18.232Z,2.50
2023-03-26T05:49:23.749Z,2.03
2023-03-26T05:52:28.016Z,2.30
2023-03-26T05:55:57.773Z,1.83
2023-03-26T05:59:19.495Z,1.92
2023-03-26T06:02:42.951Z,1.90
2023-03-26T06:06:20.618Z,1.95
2023-03-26T06:09:34.786Z,1.67
2023-03-26T06:12:38.505Z,2.10
2023-03-26T06:15:42.599Z,2.40
2023-03-26T06:18:58.028Z,1.98
2023-03-26T06:22:15.603Z,1.77
2023-03-26T06:25:47.874Z,2.30
2023-03-26T06:29:17.822Z,1.90
2023-03-26T06:32:32.331Z,2.88
2023-03-26T06:35:42.984Z,2.15
2023-03-26T06:38:46.468Z,2.28
2023-03-26T06:41:49.746Z,2.65
2023-03-26T06:45:19.571Z,2.17
2023-03-26T06:49:00.888Z,1.50
2023-03-26T06:52:26.181Z,1.50
2023-03-26T06:56:06.110Z,1.52
2023-03-26T06:59:38.327Z,1.35
2023-03-26T07:03:00.361Z,1.30
2023-03-26T07:06:22.151Z,1.37
2023-03-26T07:09:54.436Z,1.10
2023-03-26T07:13:33.058Z,1.80
2023-03-26T07:16:55.027Z,1.30
2023-03-26T07:20:09.572Z,0.90
2023-03-26T07:23:15.618Z,0.68
2023-03-26T07:27:14.938Z,1.00
2023-03-26T07:30:47.906Z,0.70
2023-03-26T07:34:22.605Z,0.60
2023-03-26T07:37:59.696Z,0.67
2023-03-26T07:41:28.978Z,0.80
2023-03-26T07:44:56.813Z,0.70
2023-03-26T07:48:25.479Z,0.75
2023-03-26T07:51:50.043Z,0.65
2023-03-26T07:55:07.680Z,0.63
2023-03-26T07:59:10.574Z,0.90
2023-03-26T08:02:45.979Z,0.50
2023-03-26T08:06:19.710Z,0.50
2023-03-26T08:10:05.751Z,0.45
2023-03-26T08:13:43.576Z,0.40
2023-03-26T08:17:09.132Z,0.80
2023-03-26T08:20:31.188Z,0.55
2023-03-26T08:24:16.355Z,0.68
2023-03-26T08:27:55.913Z,0.52
2023-03-26T08:31:03.022Z,0.60
2023-03-26T08:34:09.918Z,0.50
2023-03-26T08:37:13.168Z,0.70
2023-03-26T08:40:35.969Z,0.60
2023-03-26T08:44:04.179Z,0.50
2023-03-26T08:47:25.242Z,0.60
2023-03-26T08:51:12.840Z,0.50
2023-03-26T08:54:46.294Z,0.40
2023-03-26T08:58:09.115Z,0.30
2023-03-26T09:01:53.633Z,0.45
2023-03-26T09:05:24.769Z,0.50
2023-03-26T09:09:04.627Z,0.40
2023-03-26T09:13:07.364Z,0.40
2023-03-26T09:16:38.090Z,0.40
2023-03-26T09:20:18.757Z,0.30
2023-03-26T09:24:06.717Z,0.30
2023-03-26T09:27:13.021Z,0.30
2023-03-26T09:30:30.332Z,0.28
2023-03-26T09:33:45.458Z,0.30
2023-03-26T09:37:23.841Z,0.35
2023-03-26T09:40:54.392Z,0.50
2023-03-26T09:44:13.402Z,0.40
2023-03-26T09:47:32.313Z,0.40
2023-03-26T09:50:47.467Z,0.30
2023-03-26T09:54:20.664Z,0.60
2023-03-26T09:57:24.369Z,0.40
2023-03-26T10:04:42.150Z,0.40
2023-03-26T10:08:07.839Z,0.35
2023-03-26T10:11:13.648Z,0.60
2023-03-26T10:14:26.209Z,0.30
2023-03-26T10:17:57.266Z,0.40
2023-03-26T10:21:16.257Z,0.40
2023-03-26T10:24:39.798Z,0.30
2023-03-26T10:28:11.811Z,0.30
2023-03-26T10:31:40.321Z,0.30
2023-03-26T10:35:17.815Z,0.30
2023-03-26T10:38:52.219Z,0.30
2023-03-26T10:42:14.217Z,0.30
2023-03-26T10:45:26.354Z,0.30
2023-03-26T10:48:51.018Z,0.50
2023-03-26T10:52:02.089Z,0.30
2023-03-26T10:55:08.744Z,0.30
2023-03-26T10:58:26.160Z,0.38
2023-03-26T11:01:29.464Z,0.30
2023-03-26T11:05:03.287Z,0.30
2023-03-26T11:08:13.126Z,0.30
2023-03-26T11:11:23.754Z,0.20
2023-03-26T11:15:03.507Z,0.30
2023-03-26T11:18:33.489Z,0.20
2023-03-26T11:21:41.729Z,0.30
2023-03-26T11:25:06.681Z,0.30
2023-03-26T11:28:34.640Z,0.20
2023-03-26T11:32:13.682Z,0.40
2023-03-26T11:35:39.452Z,0.30
2023-03-26T11:38:49.153Z,0.30
2023-03-26T11:42:07.560Z,0.30
2023-03-26T11:45:24.149Z,0.30
2023-03-26T11:48:45.706Z,0.30
2023-03-26T11:51:49.351Z,0.28
2023-03-26T11:54:52.754Z,0.30
2023-03-26T11:58:00.106Z,0.20
2023-03-26T12:01:16.252Z,0.20
2023-03-26T12:04:30.752Z,0.30
2023-03-26T12:07:35.755Z,0.30
2023-03-26T12:10:42.966Z,0.27
2023-03-26T12:14:00.471Z,0.20
2023-03-26T12:17:07.554Z,0.20
2023-03-26T12:20:25.916Z,0.40
2023-03-26T12:23:58.409Z,0.25
2023-03-26T12:27:20.331Z,0.37
2023-03-26T12:30:30.924Z,0.30
2023-03-26T12:33:35.404Z,0.30
2023-03-26T12:36:39.119Z,0.20
2023-03-26T12:40:07.250Z,0.22
2023-03-26T12:44:49.666Z,0.30
2023-03-26T12:47:57.075Z,0.20
2023-03-26T12:50:16.149Z,0.20
2023-03-26T12:53:38.517Z,0.20
2023-03-26T12:57:12.654Z,0.40
2023-03-26T13:00:49.127Z,0.33
2023-03-26T13:04:17.191Z,0.30
2023-03-26T13:07:39.952Z,0.30
2023-03-26T13:10:51.165Z,0.30
2023-03-26T13:14:27.982Z,0.70
2023-03-26T13:17:39.090Z,0.20
2023-03-26T13:20:58.632Z,0.30
2023-03-26T13:24:34.860Z,0.20
2023-03-26T13:27:59.596Z,0.30
2023-03-26T13:31:19.474Z,0.20
2023-03-26T13:34:53.073Z,0.30
2023-03-26T13:38:08.423Z,0.23
2023-03-26T13:41:30.039Z,0.17
2023-03-26T13:44:53.467Z,0.20
2023-03-26T13:48:17.116Z,0.20
2023-03-26T13:51:45.040Z,0.20
2023-03-26T13:55:11.934Z,0.33
2023-03-26T13:58:34.757Z,0.20
2023-03-26T14:01:51.151Z,0.30
2023-03-26T14:05:04.782Z,0.20
2023-03-26T14:08:23.984Z,0.20
2023-03-26T14:11:56.899Z,0.20
2023-03-26T14:15:04.726Z,0.13
2023-03-26T14:18:11.090Z,0.20
2023-03-26T14:21:23.907Z,0.20
2023-03-26T14:24:43.408Z,0.20
2023-03-26T14:28:10.867Z,0.20
2023-03-26T14:31:19.553Z,0.20
2023-03-26T14:34:23.543Z,0.28
2023-03-26T14:37:46.485Z,0.20
2023-03-26T14:41:21.803Z,0.20
2023-03-26T14:44:30.506Z,0.20
2023-03-26T14:48:22.586Z,0.20
2023-03-26T14:51:33.219Z,0.20
2023-03-26T14:54:41.989Z,0.20
2023-03-26T14:58:27.949Z,0.30
2023-03-26T15:01:56.378Z,0.20
2023-03-26T15:05:38.189Z,0.60
2023-03-26T15:09:02.634Z,0.20
2023-03-26T15:12:28.302Z,0.20
2023-03-26T15:15:55.500Z,0.20
2023-03-26T15:19:19.381Z,0.20
2023-03-26T15:23:13.501Z,0.20
2023-03-26T15:26:38.073Z,0.28
2023-03-26T15:30:02.766Z,0.30
2023-03-26T15:33:35.063Z,0.20
2023-03-26T15:36:56.529Z,0.30
2023-03-26T15:40:38.115Z,0.20
2023-03-26T15:44:07.551Z,0.25
2023-03-26T15:47:57.447Z,0.30
2023-03-26T15:51:22.470Z,0.30
2023-03-26T15:54:37.676Z,0.20
2023-03-26T15:57:48.830Z,0.20
2023-03-26T16:01:20.554Z,0.20
2023-03-26T16:04:50.141Z,0.32
2023-03-26T16:08:04.416Z,0.30
2023-03-26T16:11:12.630Z,0.40
2023-03-26T16:14:36.134Z,0.50
2023-03-26T16:18:05.295Z,0.60
2023-03-26T16:21:32.445Z,0.40
2023-03-26T16:24:46.587Z,0.40
2023-03-26T16:28:07.762Z,0.50
2023-03-26T16:31:37.101Z,0.35
2023-03-26T16:34:55.556Z,0.50
2023-03-26T16:38:18.628Z,0.47
2023-03-26T16:41:32.685Z,0.47
2023-03-26T16:44:48.133Z,0.43
2023-03-26T16:48:19.703Z,0.40
2023-03-26T16:51:53.676Z,0.50
2023-03-26T16:55:15.868Z,0.40
2023-03-26T16:58:43.779Z,0.40
2023-03-26T17:01:56.795Z,0.50
2023-03-26T17:05:19.583Z,0.50
2023-03-26T17:08:43.115Z,0.35
2023-03-26T17:12:04.684Z,0.50
2023-03-26T17:15:08.454Z,0.50
2023-03-26T17:18:29.071Z,0.60
2023-03-26T17:21:55.990Z,0.70
2023-03-26T17:25:24.784Z,0.47
2023-03-26T17:29:01.645Z,0.70
2023-03-26T17:32:14.857Z,0.50
2023-03-26T17:35:34.640Z,0.80
2023-03-26T17:38:45.281Z,1.00
2023-03-26T17:41:55.726Z,1.30
2023-03-26T17:45:28.963Z,1.20
2023-03-26T17:48:42.142Z,1.70
2023-03-26T17:51:59.266Z,1.50
2023-03-26T17:55:03.871Z,1.33
2023-03-26T17:58:23.397Z,1.10
2023-03-26T18:01:29.684Z,0.65
2023-03-26T18:04:45.055Z,0.77
2023-03-26T18:08:02.087Z,0.90
2023-03-26T18:11:30.156Z,0.95
2023-03-26T18:14:42.975Z,1.20
2023-03-26T18:17:48.149Z,1.10
2023-03-26T18:20:55.070Z,0.80
2023-03-26T18:24:01.165Z,0.70
2023-03-26T18:27:22.479Z,0.50
2023-03-26T18:30:26.303Z,0.38
2023-03-26T18:33:43.535Z,0.60
2023-03-26T18:36:54.384Z,0.70
2023-03-26T18:39:59.017Z,0.60
2023-03-26T18:43:02.655Z,0.68
2023-03-26T18:46:07.034Z,0.90
2023-03-26T18:49:15.509Z,0.70
2023-03-26T18:52:20.357Z,0.87
2023-03-26T18:55:30.855Z,0.73
2023-03-26T18:58:39.184Z,0.60
2023-03-26T19:01:47.320Z,0.95
2023-03-26T19:04:54.384Z,0.57
2023-03-26T19:07:59.319Z,0.40
2023-03-26T19:11:04.932Z,0.50
2023-03-26T19:14:17.092Z,0.75
2023-03-26T19:17:21.488Z,0.52
2023-03-26T19:20:28.082Z,0.50
2023-03-26T19:23:41.188Z,0.57
2023-03-26T19:26:45.328Z,0.50
2023-03-26T19:29:48.928Z,0.95
2023-03-26T19:32:55.776Z,0.65
2023-03-26T19:36:29.743Z,0.70
2023-03-26T19:39:39.024Z,0.77
2023-03-26T19:42:44.750Z,0.60
2023-03-26T19:46:00.318Z,0.80
2023-03-26T19:49:05.437Z,0.68
2023-03-26T19:52:14.926Z,0.55
2023-03-26T19:55:24.170Z,0.50
2023-03-26T19:58:28.100Z,0.60
2023-03-26T20:01:32.242Z,0.60
2023-03-26T20:04:35.812Z,0.65
2023-03-26T20:07:39.431Z,0.50
2023-03-26T20:10:43.818Z,0.47
2023-03-26T20:13:47.782Z,0.90
2023-03-26T20:16:51.432Z,0.80
2023-03-26T20:19:54.845Z,0.63
2023-03-26T20:22:58.683Z,0.75
2023-03-26T20:26:02.126Z,0.50
2023-03-26T20:29:07.848Z,0.50
2023-03-26T20:32:23.691Z,0.60
2023-03-26T20:35:35.842Z,0.77
2023-03-26T20:38:41.072Z,0.50
2023-03-26T20:41:47.643Z,0.70
2023-03-26T20:44:51.064Z,0.47
2023-03-26T20:47:54.509Z,0.80
2023-03-26T20:50:57.978Z,0.50
2023-03-26T20:54:02.033Z,0.77
2023-03-26T20:57:05.263Z,0.60
2023-03-26T21:00:22.225Z,0.70
2023-03-26T21:03:25.561Z,0.77
2023-03-26T21:06:28.970Z,0.73
2023-03-26T21:09:35.675Z,0.80
2023-03-26T21:13:16.453Z,0.73
2023-03-26T21:16:19.930Z,0.60
2023-03-26T21:19:23.293Z,0.50
2023-03-26T21:23:12.922Z,0.80
2023-03-26T21:26:32.720Z,0.70
2023-03-26T21:29:36.803Z,0.67
2023-03-26T21:32:41.230Z,0.70
2023-03-26T21:35:45.260Z,0.70
2023-03-26T21:38:50.584Z,0.63
2023-03-26T21:42:04.766Z,0.95
2023-03-26T21:45:10.057Z,0.70
2023-03-26T21:48:13.884Z,0.67
2023-03-26T21:51:19.436Z,0.80
2023-03-26T21:54:26.509Z,0.90
2023-03-26T21:57:42.472Z,0.93
2023-03-26T22:01:02.710Z,1.10
2023-03-26T22:04:19.071Z,1.07
2023-03-26T22:07:28.323Z,0.90
2023-03-26T22:10:32.958Z,0.90
2023-03-26T22:13:38.240Z,0.93
2023-03-26T22:16:41.764Z,0.80
2023-03-26T22:19:45.177Z,0.80
2023-03-26T22:22:48.959Z,1.00
2023-03-26T22:25:52.654Z,0.90
2023-03-26T22:28:56.927Z,1.00
2023-03-26T22:32:00.163Z,1.10
2023-03-26T22:35:04.257Z,1.03
2023-03-26T22:38:07.495Z,1.00
2023-03-26T22:41:12.923Z,0.98
2023-03-26T22:44:20.316Z,1.52
2023-03-26T22:47:25.073Z,1.43
2023-03-26T22:50:28.419Z,1.17
2023-03-26T22:53:32.718Z,1.02
2023-03-26T22:56:37.124Z,1.10
2023-03-26T22:59:40.437Z,1.05
2023-03-26T23:02:45.290Z,1.10
2023-03-26T23:05:59.987Z,0.87
2023-03-26T23:09:03.920Z,0.80
2023-03-26T23:12:07.788Z,0.80
2023-03-26T23:15:11.560Z,1.17
2023-03-26T23:18:14.829Z,0.97
2023-03-26T23:21:22.306Z,0.95
2023-03-26T23:24:30.162Z,0.77
2023-03-26T23:27:34.031Z,0.95
2023-03-26T23:30:37.902Z,0.90
2023-03-26T23:33:50.316Z,0.80
2023-03-26T23:36:53.866Z,0.80
2023-03-26T23:39:58.720Z,1.00
2023-03-26T23:43:01.937Z,1.10
2023-03-26T23:46:05.582Z,1.15
2023-03-26T23:49:10.116Z,0.90
2023-03-26T23:52:16.974Z,0.90
2023-03-26T23:55:20.319Z,1.00
2023-03-26T23:58:24.687Z,0.88
